Ashland, West Virginia
Current Conditions -  °F | °C
As of 10:52 AM on Wednesday 22 Oct 2014 (Local Time) from KBLF Reporting Station
Haze Haze  
Wind Chill: 39°   Ceiling: 300
Heat Index: 43°   Visibility: 5mi
Dew Point: 39°   Wind: 6mph
Humidity: 86%   Direction: 310°NW
Pressure: 30.15"   Gusts: NA
Location:  37.3807°N, 81.4099°W
Report Text: KBLF 221452Z AUTO 31005KT 5SM BR OVC003 06/04 A3015 RMK AO2 CIG 003V006 SLP210 60001 T00610039 51014
Loading
Personal Weather Stations






























Interactive Weather Map
Tropical Storm Tracking
New forecast layout! Learn more

10-Day Weather Forecast

Advertisements
Track Severe Weather on mobile